Airfield :
LOGIN :

Register | Disclaimer

   EN    FR    IT 

 










Legend :    VFR   Marginal VFR   IFR   Intensive IFR   Very Intensive IFR
Visi :
Ceiling :
>= 8 km
>= 3000ft
5 to 8 km
1000 to 3000 ft
1500m to 5 km
500 to 1000 ft
800 to 1500m
200 to 500 ft
< 800m
< 200 ft
Symbols :   Thunderstorms  Fog  Heavy snow  Heavy precipitations  Wind > 20 kt
SIGMETs :     Misc.  Thunderstorms  Icing  Turbulence  Mountain Waves  Volcanic Ashes






- Airport Elevation : 433 ft
- IATA code : CCF


LFMK - Carcassonne

CURRENT METAR :
  • 181930Z AUTO 26005KT 230V290 CAVOK 12/01 Q1020

EXPIRED METARs :
  • 181900Z AUTO 26006KT CAVOK 12/02 Q1020
  • 181830Z AUTO 27008KT CAVOK 13/01 Q1020
  • 181800Z AUTO 28012KT CAVOK 14/01 Q1020 NOSIG
  • 181730Z AUTO 29014KT CAVOK 15/01 Q1019 NOSIG
  • 181700Z AUTO 29014KT CAVOK 16/01 Q1019 NOSIG

TAF TAF LFMK
Valid from the 18 at 15:00 until the 19 at 15:00 UTC


181400Z 1815/1915 29020KT 9999 SCT065
BECMG 1818/1820 28010KT
BECMG 1902/1905 CAVOK



MET'MAP, your aeronautical weather chart ! - Copyright ORBIFLY December 2007 - Disclaimer

ORBIFLY MET'MAP TEAM :

Programming & Development : Alexandra Zaïnal
Concept & original design : Baudouin d'Aumeries
Assistance for programming : Marc-Olivier Méhu
Technical & hardware support : Manuel Goepfert

Contact : metmap@orbifly.com




SOURCES & CREDITS :

   NOAA